Time;durP1;ratioP1;P1;durP2;ratioP2;P2;SDS_P1;SDS_P2;PMS_P1;PMS_P2;Temp;Humidity;BMP_temperature;BMP_pressure;BME280_temperature;BME280_humidity;BME280_pressure;Samples;Min_cycle;Max_cycle;Signal;HPM_P1;HPM_P2
2023/10/31 00:01:24;;;;;;;3.72;1.23;;;12.70;99.90;;;;;;4131187;28;20052;-80
2023/10/31 00:03:25;;;;;;;1.83;1.10;;;12.60;99.90;;;;;;4132586;28;20038;-80
2023/10/31 00:05:26;;;;;;;1.38;1.02;;;12.60;99.90;;;;;;4134654;28;20037;-81
2023/10/31 00:07:27;;;;;;;2.42;1.25;;;12.50;99.90;;;;;;4131071;28;20092;-80
2023/10/31 00:09:27;;;;;;;1.27;1.10;;;12.50;99.90;;;;;;4130094;28;20129;-80
2023/10/31 00:11:28;;;;;;;1.48;1.02;;;12.50;99.90;;;;;;4128704;28;20038;-80
2023/10/31 00:13:28;;;;;;;1.45;1.35;;;12.50;99.90;;;;;;4132953;28;20035;-80
2023/10/31 00:15:30;;;;;;;2.45;1.67;;;12.50;99.90;;;;;;4131126;28;20049;-80
2023/10/31 00:17:31;;;;;;;1.73;1.35;;;12.40;99.90;;;;;;4131029;28;20068;-80
2023/10/31 00:19:31;;;;;;;1.63;1.52;;;12.40;99.90;;;;;;4129217;28;20065;-80
2023/10/31 00:21:32;;;;;;;1.67;1.55;;;12.40;99.90;;;;;;4135142;28;20045;-80
2023/10/31 00:23:32;;;;;;;1.02;1.00;;;12.40;99.90;;;;;;4127381;28;20108;-80
2023/10/31 00:25:33;;;;;;;1.45;1.10;;;12.40;99.90;;;;;;4115333;28;20515;-80
2023/10/31 00:27:33;;;;;;;1.85;1.20;;;12.40;99.90;;;;;;4132944;28;20030;-80
2023/10/31 00:29:34;;;;;;;1.85;1.00;;;12.30;99.90;;;;;;4131994;28;20133;-80
2023/10/31 00:31:34;;;;;;;2.92;0.90;;;12.30;99.90;;;;;;4133720;28;20030;-80
2023/10/31 00:33:35;;;;;;;0.90;0.90;;;12.30;99.90;;;;;;4130168;28;20027;-80
2023/10/31 00:35:37;;;;;;;0.68;0.68;;;12.30;99.90;;;;;;4131845;28;20038;-80
2023/10/31 00:37:39;;;;;;;0.77;0.63;;;12.30;99.90;;;;;;4132940;28;20099;-81
2023/10/31 00:39:40;;;;;;;1.50;0.73;;;12.30;99.90;;;;;;4129010;28;20033;-80
2023/10/31 00:41:47;;;;;;;2.65;0.70;;;12.30;99.90;;;;;;4130109;28;20031;-73
2023/10/31 00:43:47;;;;;;;3.17;0.98;;;12.30;99.90;;;;;;4104576;28;20039;-80
2023/10/31 00:45:48;;;;;;;4.40;1.00;;;12.20;99.90;;;;;;4130867;28;20042;-80
2023/10/31 00:47:48;;;;;;;5.63;1.27;;;12.20;99.90;;;;;;4113430;28;20057;-80
2023/10/31 00:49:49;;;;;;;2.47;1.13;;;12.20;99.90;;;;;;4125697;28;20034;-80
2023/10/31 00:51:49;;;;;;;1.15;0.77;;;12.20;99.90;;;;;;4130006;28;20030;-80
2023/10/31 00:53:50;;;;;;;1.13;1.00;;;12.10;99.90;;;;;;4130401;28;20034;-80
2023/10/31 00:55:51;;;;;;;2.97;1.15;;;12.10;99.90;;;;;;4129174;28;20616;-80
2023/10/31 00:57:51;;;;;;;4.22;1.70;;;12.10;99.90;;;;;;4131208;28;20043;-80
2023/10/31 00:59:52;;;;;;;1.52;1.08;;;12.10;99.90;;;;;;4132581;28;20066;-80
2023/10/31 01:01:53;;;;;;;2.20;1.45;;;12.10;99.90;;;;;;4131993;28;20043;-81
2023/10/31 01:03:53;;;;;;;5.97;2.05;;;12.10;99.90;;;;;;4133586;28;20049;-80
2023/10/31 01:05:54;;;;;;;4.13;2.40;;;12.10;99.90;;;;;;4133467;28;20062;-72
2023/10/31 01:07:55;;;;;;;4.22;2.08;;;12.10;99.90;;;;;;4129091;28;20045;-72
2023/10/31 01:09:55;;;;;;;5.40;2.95;;;12.10;99.90;;;;;;4129731;28;20050;-71
2023/10/31 01:11:56;;;;;;;3.60;2.33;;;12.10;99.90;;;;;;4124180;28;20089;-72
2023/10/31 01:13:56;;;;;;;4.25;2.90;;;12.10;99.90;;;;;;4126490;28;20054;-72
2023/10/31 01:15:57;;;;;;;4.22;2.95;;;12.10;99.90;;;;;;4125193;28;20368;-71
2023/10/31 01:17:58;;;;;;;4.10;3.22;;;12.10;99.90;;;;;;4125253;28;20042;-72
2023/10/31 01:19:58;;;;;;;6.25;3.55;;;12.20;99.90;;;;;;4125790;28;20053;-72
2023/10/31 01:21:59;;;;;;;4.40;3.15;;;12.20;99.90;;;;;;4125564;28;20460;-72
2023/10/31 01:24:00;;;;;;;4.50;3.10;;;12.20;99.90;;;;;;4125909;28;20045;-72
2023/10/31 01:26:00;;;;;;;4.75;3.67;;;12.20;99.90;;;;;;4125239;28;20115;-72
2023/10/31 01:28:01;;;;;;;4.93;4.05;;;12.10;99.90;;;;;;4125212;28;20041;-72
2023/10/31 01:30:02;;;;;;;7.63;4.35;;;12.20;99.90;;;;;;4133295;28;20053;-72
2023/10/31 01:32:02;;;;;;;3.78;3.33;;;12.20;99.90;;;;;;4141850;28;20041;-72
2023/10/31 01:34:03;;;;;;;7.57;4.30;;;12.20;99.90;;;;;;4142362;28;20041;-72
2023/10/31 01:36:04;;;;;;;5.70;3.70;;;12.20;99.90;;;;;;4141534;28;20038;-72
2023/10/31 01:38:04;;;;;;;6.60;3.63;;;12.10;99.90;;;;;;4143305;28;20386;-72
2023/10/31 01:40:07;;;;;;;5.72;4.03;;;12.20;99.90;;;;;;4144954;28;20042;-73
2023/10/31 01:42:07;;;;;;;7.80;4.72;;;12.20;99.90;;;;;;4142259;28;20034;-72
2023/10/31 01:44:09;;;;;;;5.93;3.88;;;12.10;99.90;;;;;;4142379;28;20471;-72
2023/10/31 01:46:10;;;;;;;4.78;3.92;;;12.10;99.90;;;;;;4140353;28;20038;-72
2023/10/31 01:48:10;;;;;;;5.93;3.67;;;12.10;99.90;;;;;;4145669;28;20029;-72
2023/10/31 01:50:11;;;;;;;6.03;3.67;;;12.10;99.90;;;;;;4141315;28;20041;-71
2023/10/31 01:52:12;;;;;;;4.80;3.40;;;12.10;99.90;;;;;;4141137;28;20502;-71
2023/10/31 01:54:14;;;;;;;4.28;2.88;;;12.20;99.90;;;;;;4141430;28;20058;-72
2023/10/31 01:56:14;;;;;;;4.22;2.42;;;12.20;99.90;;;;;;4139847;28;20038;-72
2023/10/31 01:58:15;;;;;;;5.13;2.63;;;12.20;99.90;;;;;;4143033;28;20037;-72
2023/10/31 02:00:16;;;;;;;4.47;2.97;;;12.20;99.90;;;;;;4109678;28;20039;-72
2023/10/31 02:02:19;;;;;;;3.55;2.58;;;12.20;99.90;;;;;;4141300;28;20113;-72
2023/10/31 02:04:20;;;;;;;6.00;2.83;;;12.20;99.90;;;;;;4140104;28;20026;-72
2023/10/31 02:06:21;;;;;;;5.15;2.42;;;12.20;99.90;;;;;;4140351;28;20042;-72
2023/10/31 02:08:22;;;;;;;3.78;2.88;;;12.20;99.90;;;;;;4147122;28;20038;-72
2023/10/31 02:10:23;;;;;;;4.40;3.08;;;12.20;99.90;;;;;;4140933;28;20053;-72
2023/10/31 02:12:37;;;;;;;3.95;2.75;;;12.20;99.90;;;;;;4142857;28;20034;-72
2023/10/31 02:14:37;;;;;;;7.10;3.80;;;12.20;99.90;;;;;;4136493;28;20037;-66
2023/10/31 02:16:38;;;;;;;5.60;3.35;;;12.20;99.90;;;;;;4145580;28;20058;-72
2023/10/31 02:18:39;;;;;;;5.68;3.67;;;12.20;99.90;;;;;;4141778;28;20042;-71
2023/10/31 02:20:39;;;;;;;6.95;3.92;;;12.10;99.90;;;;;;4126134;28;20396;-71
2023/10/31 02:22:40;;;;;;;7.10;4.20;;;12.20;99.90;;;;;;4139421;28;20083;-72
2023/10/31 02:24:41;;;;;;;6.22;4.25;;;12.20;99.90;;;;;;4144245;28;20030;-72
2023/10/31 02:26:41;;;;;;;9.25;5.00;;;12.20;99.90;;;;;;4143933;28;20088;-71
2023/10/31 02:28:42;;;;;;;7.80;5.43;;;12.20;99.90;;;;;;4146233;28;20038;-71
2023/10/31 02:30:43;;;;;;;8.40;5.25;;;12.10;99.90;;;;;;4128939;28;20054;-71
2023/10/31 02:32:44;;;;;;;9.05;4.65;;;12.10;99.90;;;;;;4128584;28;20112;-72
2023/10/31 02:34:45;;;;;;;9.68;5.10;;;12.10;99.90;;;;;;4128186;28;20066;-71
2023/10/31 02:36:46;;;;;;;9.68;6.22;;;12.10;99.90;;;;;;4127105;28;20118;-71
2023/10/31 02:38:47;;;;;;;8.70;5.55;;;12.20;99.90;;;;;;4128042;28;20042;-71
2023/10/31 02:40:47;;;;;;;8.30;4.72;;;12.10;99.90;;;;;;4120290;28;20038;-71
2023/10/31 02:42:48;;;;;;;8.32;5.93;;;12.20;99.90;;;;;;4128398;28;20073;-71
2023/10/31 02:44:48;;;;;;;9.25;6.22;;;12.10;99.90;;;;;;4120689;28;20073;-71
2023/10/31 02:46:49;;;;;;;8.70;5.45;;;12.10;99.90;;;;;;4106325;28;20043;-72
2023/10/31 02:48:50;;;;;;;10.65;6.30;;;12.10;99.90;;;;;;4125049;28;20046;-71
2023/10/31 02:50:51;;;;;;;9.32;5.38;;;12.10;99.90;;;;;;4111581;28;20043;-71
2023/10/31 02:52:51;;;;;;;8.02;5.63;;;12.20;99.90;;;;;;4128348;28;20510;-71
2023/10/31 02:54:52;;;;;;;9.85;6.10;;;12.20;99.90;;;;;;4128132;28;20097;-71
2023/10/31 02:56:53;;;;;;;11.23;5.72;;;12.10;99.90;;;;;;4127084;28;20038;-71
2023/10/31 02:58:54;;;;;;;8.32;6.07;;;12.20;99.90;;;;;;4125489;28;20489;-71
2023/10/31 03:00:55;;;;;;;8.35;5.65;;;12.20;99.90;;;;;;4127770;28;20034;-72
2023/10/31 03:02:55;;;;;;;10.18;6.07;;;12.20;99.90;;;;;;4128293;28;20042;-71
2023/10/31 03:04:56;;;;;;;11.15;5.82;;;12.20;99.90;;;;;;4128261;28;20030;-72
2023/10/31 03:06:56;;;;;;;7.22;5.03;;;12.10;99.90;;;;;;4126516;28;20053;-72
2023/10/31 03:08:57;;;;;;;10.88;6.13;;;12.20;99.90;;;;;;4127118;28;20504;-71
2023/10/31 03:10:57;;;;;;;9.70;6.45;;;12.10;99.90;;;;;;4118578;28;20327;-72
2023/10/31 03:12:59;;;;;;;7.35;5.03;;;12.10;99.90;;;;;;4126320;28;20435;-71
2023/10/31 03:14:59;;;;;;;6.65;4.15;;;12.10;99.90;;;;;;4129053;28;20475;-72
2023/10/31 03:17:00;;;;;;;5.82;4.18;;;12.10;99.90;;;;;;4127946;28;20088;-72
2023/10/31 03:19:00;;;;;;;7.35;4.65;;;12.10;99.90;;;;;;4128294;28;20121;-71
2023/10/31 03:21:01;;;;;;;6.65;4.03;;;12.10;99.90;;;;;;4124698;28;20038;-72
2023/10/31 03:23:02;;;;;;;7.47;3.72;;;12.10;99.90;;;;;;4125251;28;20046;-72
2023/10/31 03:25:02;;;;;;;6.55;3.67;;;12.10;99.90;;;;;;4129068;28;20026;-66
2023/10/31 03:27:03;;;;;;;4.35;3.40;;;12.10;99.90;;;;;;4126024;28;20039;-66
2023/10/31 03:29:04;;;;;;;6.13;3.90;;;12.00;99.90;;;;;;4127310;28;20055;-65
2023/10/31 03:31:04;;;;;;;6.88;3.75;;;12.00;99.90;;;;;;4124869;28;20126;-66
2023/10/31 03:33:05;;;;;;;4.80;3.17;;;12.00;99.90;;;;;;4123451;28;20121;-66
2023/10/31 03:35:06;;;;;;;4.10;3.10;;;12.10;99.90;;;;;;4126860;28;20117;-66
2023/10/31 03:37:07;;;;;;;5.50;3.50;;;12.10;99.90;;;;;;4126624;28;20086;-65
2023/10/31 03:39:08;;;;;;;5.07;3.63;;;12.00;99.90;;;;;;4127277;28;20402;-65
2023/10/31 03:41:08;;;;;;;5.18;3.47;;;12.00;99.90;;;;;;4127464;28;20475;-65
2023/10/31 03:43:09;;;;;;;4.72;3.90;;;12.00;99.90;;;;;;4126659;28;20046;-65
2023/10/31 03:45:10;;;;;;;4.78;3.80;;;12.10;99.90;;;;;;4127325;28;20049;-68
2023/10/31 03:47:10;;;;;;;5.95;3.70;;;12.10;99.90;;;;;;4126898;28;20034;-65
2023/10/31 03:49:11;;;;;;;5.47;3.35;;;12.10;99.90;;;;;;4127220;28;20046;-65
2023/10/31 03:51:12;;;;;;;5.03;3.92;;;12.10;99.90;;;;;;4125781;28;20372;-68
2023/10/31 03:53:12;;;;;;;5.82;4.60;;;12.10;99.90;;;;;;4124475;28;20046;-66
2023/10/31 03:55:13;;;;;;;5.10;3.72;;;12.00;99.90;;;;;;4126223;28;20525;-66
2023/10/31 03:57:14;;;;;;;7.15;4.68;;;12.00;99.90;;;;;;4110137;28;20031;-66
2023/10/31 03:59:14;;;;;;;7.05;4.55;;;12.10;99.90;;;;;;4127012;28;20126;-66
2023/10/31 04:01:15;;;;;;;8.18;4.40;;;12.00;99.90;;;;;;4119584;28;20555;-65
2023/10/31 04:03:16;;;;;;;6.15;4.40;;;12.00;99.90;;;;;;4127365;28;20492;-66
2023/10/31 04:05:16;;;;;;;7.55;4.63;;;12.00;99.90;;;;;;4125950;28;20391;-66
2023/10/31 04:07:17;;;;;;;7.32;4.25;;;12.00;99.90;;;;;;4126277;28;20030;-66
2023/10/31 04:09:17;;;;;;;6.20;4.13;;;12.00;99.90;;;;;;4126360;28;20110;-66
2023/10/31 04:11:18;;;;;;;6.72;4.10;;;12.00;99.90;;;;;;4119520;28;20058;-65
2023/10/31 04:13:19;;;;;;;7.68;4.85;;;12.00;99.90;;;;;;4103662;28;20141;-66
2023/10/31 04:15:19;;;;;;;7.72;4.00;;;12.00;99.90;;;;;;4126538;28;20033;-65
2023/10/31 04:17:20;;;;;;;6.50;4.15;;;12.00;99.90;;;;;;4127076;28;20039;-66
2023/10/31 04:19:20;;;;;;;5.72;4.43;;;12.10;99.90;;;;;;4128529;28;20498;-66
2023/10/31 04:21:21;;;;;;;8.13;4.40;;;12.10;99.90;;;;;;4126730;28;20093;-66
2023/10/31 04:23:22;;;;;;;7.10;4.65;;;12.00;99.90;;;;;;4109907;28;20031;-66
2023/10/31 04:25:22;;;;;;;8.07;5.15;;;12.10;99.90;;;;;;4126489;28;20034;-65
2023/10/31 04:27:23;;;;;;;6.65;4.90;;;12.10;99.90;;;;;;4126778;28;20076;-66
2023/10/31 04:29:23;;;;;;;6.90;4.88;;;12.10;99.90;;;;;;4126372;28;20505;-66
2023/10/31 04:31:24;;;;;;;7.47;4.78;;;12.00;99.90;;;;;;4126328;28;20105;-66
2023/10/31 04:33:24;;;;;;;8.55;5.25;;;12.00;99.90;;;;;;4126681;28;20066;-65
2023/10/31 04:35:25;;;;;;;6.40;4.85;;;12.00;99.90;;;;;;4125837;28;20034;-70
2023/10/31 04:37:26;;;;;;;7.32;5.20;;;12.00;99.90;;;;;;4126334;28;20042;-69
2023/10/31 04:39:27;;;;;;;8.45;5.80;;;12.00;99.90;;;;;;4126350;28;20519;-70
2023/10/31 04:41:28;;;;;;;7.03;5.25;;;12.10;99.90;;;;;;4124588;28;20046;-70
2023/10/31 04:43:28;;;;;;;6.63;4.93;;;12.10;99.90;;;;;;4126920;28;20049;-70
2023/10/31 04:45:29;;;;;;;7.93;4.90;;;12.10;99.90;;;;;;4125888;28;20034;-70
2023/10/31 04:47:30;;;;;;;6.75;4.80;;;12.10;99.90;;;;;;4123932;28;20030;-69
2023/10/31 04:49:30;;;;;;;9.45;5.10;;;12.10;99.90;;;;;;4108312;28;20050;-70
2023/10/31 04:51:35;;;;;;;7.50;5.10;;;12.10;99.90;;;;;;4125564;28;20074;-70
2023/10/31 04:53:36;;;;;;;7.38;5.00;;;12.10;99.90;;;;;;4127330;28;20133;-69
2023/10/31 04:55:36;;;;;;;11.35;6.72;;;12.10;99.90;;;;;;4126005;28;20034;-70
2023/10/31 04:57:37;;;;;;;7.18;5.25;;;12.10;99.90;;;;;;4109398;28;20033;-70
2023/10/31 04:59:38;;;;;;;7.95;5.95;;;12.10;99.90;;;;;;4125939;28;20038;-70
2023/10/31 05:01:38;;;;;;;7.50;5.80;;;12.10;99.90;;;;;;4106251;28;20447;-70
2023/10/31 05:03:39;;;;;;;7.10;5.22;;;12.10;99.90;;;;;;4108629;28;20056;-69
2023/10/31 05:05:40;;;;;;;7.32;5.53;;;12.10;99.90;;;;;;4108221;28;20388;-70
2023/10/31 05:07:40;;;;;;;9.05;6.55;;;12.10;99.90;;;;;;4124063;28;20045;-69
2023/10/31 05:09:41;;;;;;;7.55;6.63;;;12.10;99.90;;;;;;4122507;28;20042;-69
2023/10/31 05:11:42;;;;;;;9.73;6.25;;;12.10;99.90;;;;;;4123057;28;20030;-69
2023/10/31 05:13:43;;;;;;;8.13;6.78;;;12.10;99.90;;;;;;4110782;28;20038;-70
2023/10/31 05:15:44;;;;;;;10.30;6.97;;;12.10;99.90;;;;;;4126627;28;20042;-70
2023/10/31 05:17:44;;;;;;;9.85;6.97;;;12.10;99.90;;;;;;4121998;28;20110;-69
2023/10/31 05:19:45;;;;;;;9.40;6.97;;;12.10;99.90;;;;;;4125904;28;20064;-69
2023/10/31 05:21:46;;;;;;;9.63;6.97;;;12.10;99.90;;;;;;4126179;28;20706;-70
2023/10/31 05:23:46;;;;;;;8.30;6.80;;;12.10;99.90;;;;;;4134144;28;20030;-70
2023/10/31 05:25:47;;;;;;;10.10;7.00;;;12.10;99.90;;;;;;4129594;28;20041;-69
2023/10/31 05:27:48;;;;;;;7.70;6.20;;;12.10;99.90;;;;;;4126247;28;20446;-70
2023/10/31 05:29:49;;;;;;;8.75;6.88;;;12.10;99.90;;;;;;4126807;28;20045;-70
2023/10/31 05:31:49;;;;;;;7.88;6.35;;;12.10;99.90;;;;;;4159605;28;20117;-69
2023/10/31 05:33:52;;;;;;;11.13;7.15;;;12.20;99.90;;;;;;4142269;28;20049;-70
2023/10/31 05:35:52;;;;;;;7.95;6.35;;;12.20;99.90;;;;;;4142119;28;20371;-69
2023/10/31 05:37:53;;;;;;;10.15;6.85;;;12.10;99.90;;;;;;4140584;28;20090;-69
2023/10/31 05:39:54;;;;;;;8.95;6.53;;;12.20;99.90;;;;;;4144677;28;20509;-70
2023/10/31 05:41:54;;;;;;;7.93;6.93;;;12.10;99.90;;;;;;4154532;28;20026;-69
2023/10/31 05:43:55;;;;;;;7.65;6.15;;;12.20;99.90;;;;;;4135645;28;20068;-69
2023/10/31 05:45:56;;;;;;;8.85;6.45;;;12.10;99.90;;;;;;4134869;28;20041;-72
2023/10/31 05:47:56;;;;;;;7.63;5.85;;;12.10;99.90;;;;;;4140719;28;20104;-68
2023/10/31 05:49:57;;;;;;;10.02;6.55;;;12.10;99.90;;;;;;4137349;28;20056;-71
2023/10/31 05:51:58;;;;;;;7.32;5.38;;;12.20;99.90;;;;;;4139262;28;20178;-71
2023/10/31 05:53:59;;;;;;;10.00;6.43;;;12.20;99.90;;;;;;4150289;28;20076;-71
2023/10/31 05:56:00;;;;;;;9.55;6.30;;;12.20;99.90;;;;;;4143676;28;20485;-71
2023/10/31 05:58:00;;;;;;;9.02;6.00;;;12.10;99.90;;;;;;4141992;28;20030;-71
2023/10/31 06:00:01;;;;;;;8.00;5.68;;;12.10;99.90;;;;;;4135232;28;20038;-71
2023/10/31 06:02:02;;;;;;;8.00;5.30;;;12.10;99.90;;;;;;4141691;28;20066;-71
2023/10/31 06:04:03;;;;;;;6.72;5.28;;;12.00;99.90;;;;;;4137029;28;20457;-70
2023/10/31 06:06:04;;;;;;;4.93;4.40;;;12.00;99.90;;;;;;4140223;28;20031;-71
2023/10/31 06:08:04;;;;;;;7.65;5.05;;;12.10;99.90;;;;;;4148102;28;20042;-71
2023/10/31 06:10:06;;;;;;;9.02;4.63;;;12.10;99.90;;;;;;4142818;28;20509;-72
2023/10/31 06:12:06;;;;;;;6.70;4.60;;;12.10;99.90;;;;;;4141847;28;20394;-71
2023/10/31 06:14:07;;;;;;;5.07;4.57;;;12.10;99.90;;;;;;4141187;28;20045;-71
2023/10/31 06:16:08;;;;;;;5.53;4.55;;;12.00;99.90;;;;;;4140385;28;20041;-71
2023/10/31 06:18:08;;;;;;;8.20;5.20;;;12.00;99.90;;;;;;4136042;28;20091;-71
2023/10/31 06:20:09;;;;;;;6.70;4.97;;;12.00;99.90;;;;;;4139210;28;20037;-72
2023/10/31 06:22:10;;;;;;;8.82;5.90;;;12.00;99.90;;;;;;4134351;28;20045;-71
2023/10/31 06:24:11;;;;;;;9.48;5.68;;;12.00;99.90;;;;;;4138475;28;20038;-71
2023/10/31 06:26:11;;;;;;;5.82;5.20;;;12.00;99.90;;;;;;4136640;28;20084;-71
2023/10/31 06:28:12;;;;;;;9.27;5.30;;;12.00;99.90;;;;;;4141908;28;20093;-70
2023/10/31 06:30:13;;;;;;;6.25;5.63;;;12.10;99.90;;;;;;4127039;28;20106;-70
2023/10/31 06:32:13;;;;;;;6.47;5.47;;;12.00;99.90;;;;;;4121979;28;20042;-71
2023/10/31 06:34:14;;;;;;;8.10;5.78;;;12.00;99.90;;;;;;4128225;28;20034;-76
2023/10/31 06:36:15;;;;;;;6.95;5.30;;;12.10;99.90;;;;;;4117964;28;20101;-76
2023/10/31 06:38:15;;;;;;;6.30;4.72;;;12.10;99.90;;;;;;4124396;28;20046;-70
2023/10/31 06:40:16;;;;;;;6.10;4.38;;;12.10;99.90;;;;;;4125909;28;20113;-69
2023/10/31 06:42:17;;;;;;;7.50;5.05;;;12.00;99.90;;;;;;4126260;28;20037;-69
2023/10/31 06:44:17;;;;;;;5.50;4.93;;;12.10;99.90;;;;;;4126426;28;20041;-70
2023/10/31 06:46:18;;;;;;;6.85;4.75;;;12.10;99.90;;;;;;4125356;28;20033;-69
2023/10/31 06:48:18;;;;;;;8.57;4.93;;;12.10;99.90;;;;;;4125573;28;20089;-69
2023/10/31 06:50:19;;;;;;;5.80;4.78;;;12.10;99.90;;;;;;4106919;28;20431;-69
2023/10/31 06:52:20;;;;;;;7.07;5.07;;;12.00;99.90;;;;;;4121062;28;20026;-70
2023/10/31 06:54:21;;;;;;;7.30;4.97;;;12.00;99.90;;;;;;4124637;28;20022;-70
2023/10/31 06:56:22;;;;;;;6.72;5.25;;;12.10;99.90;;;;;;4125206;28;20113;-69
2023/10/31 06:58:23;;;;;;;5.70;4.90;;;12.10;99.90;;;;;;4125585;28;20045;-69
2023/10/31 07:00:23;;;;;;;6.35;5.55;;;12.10;99.90;;;;;;4125240;28;20708;-70
2023/10/31 07:02:25;;;;;;;6.97;5.15;;;12.10;99.90;;;;;;4126503;28;20035;-69
2023/10/31 07:04:26;;;;;;;8.13;6.45;;;12.10;99.90;;;;;;4123866;28;20031;-69
2023/10/31 07:06:26;;;;;;;8.82;7.15;;;12.10;99.90;;;;;;4108134;28;20058;-67
2023/10/31 07:08:27;;;;;;;9.23;6.00;;;12.10;99.90;;;;;;4125295;28;20080;-67
2023/10/31 07:10:27;;;;;;;8.70;6.45;;;12.10;99.90;;;;;;4127029;28;20042;-67
2023/10/31 07:12:28;;;;;;;7.03;6.20;;;12.10;99.90;;;;;;4128706;28;20536;-67
2023/10/31 07:14:29;;;;;;;7.13;6.35;;;12.10;99.90;;;;;;4129425;28;20034;-67
2023/10/31 07:16:31;;;;;;;9.43;7.10;;;12.10;99.90;;;;;;4127391;28;20117;-67
2023/10/31 07:18:32;;;;;;;10.00;7.18;;;12.00;99.90;;;;;;4127706;28;20040;-67
2023/10/31 07:20:33;;;;;;;8.90;6.57;;;12.10;99.90;;;;;;4122974;28;20026;-67
2023/10/31 07:22:34;;;;;;;7.88;6.32;;;12.10;99.90;;;;;;4128780;28;20434;-67
2023/10/31 07:24:36;;;;;;;7.75;6.28;;;12.10;99.90;;;;;;4126808;28;20091;-67
2023/10/31 07:26:37;;;;;;;7.03;6.07;;;12.10;99.90;;;;;;4125463;28;20041;-67
2023/10/31 07:28:37;;;;;;;7.53;6.07;;;12.10;99.90;;;;;;4092208;28;20392;-67
2023/10/31 07:30:38;;;;;;;7.45;5.78;;;12.10;99.90;;;;;;4125536;28;21005;-67
2023/10/31 07:32:38;;;;;;;8.98;6.68;;;12.10;99.90;;;;;;4128927;28;20114;-67
2023/10/31 07:34:42;;;;;;;6.72;5.93;;;12.10;99.90;;;;;;4129155;28;20026;-67
2023/10/31 07:36:43;;;;;;;9.55;6.22;;;12.10;99.90;;;;;;4128039;28;20172;-67
2023/10/31 07:38:44;;;;;;;9.50;6.07;;;12.10;99.90;;;;;;4131974;28;20051;-67
2023/10/31 07:40:44;;;;;;;6.60;5.90;;;12.20;99.90;;;;;;4127854;28;20034;-67
2023/10/31 07:42:45;;;;;;;9.68;7.47;;;12.20;99.90;;;;;;4129382;28;20487;-66
2023/10/31 07:44:46;;;;;;;8.90;6.68;;;12.20;99.90;;;;;;4128554;28;20034;-72
2023/10/31 07:46:46;;;;;;;7.88;6.50;;;12.10;99.90;;;;;;4127185;28;20051;-67
2023/10/31 07:48:47;;;;;;;6.90;6.03;;;12.10;99.90;;;;;;4131318;28;20479;-67
2023/10/31 07:50:47;;;;;;;8.70;7.45;;;12.10;99.90;;;;;;4127759;28;20046;-67
2023/10/31 07:52:48;;;;;;;8.45;7.35;;;12.10;99.90;;;;;;4128416;28;20030;-67
2023/10/31 07:54:48;;;;;;;11.90;7.75;;;12.10;99.90;;;;;;4128911;28;20035;-67
2023/10/31 07:56:49;;;;;;;8.75;7.18;;;12.00;99.90;;;;;;4127993;28;20034;-67
2023/10/31 07:58:50;;;;;;;8.27;6.70;;;12.10;99.90;;;;;;4131855;28;20042;-67
2023/10/31 08:00:50;;;;;;;8.63;7.15;;;12.10;99.90;;;;;;4128216;28;20387;-67
2023/10/31 08:02:51;;;;;;;10.50;7.85;;;12.10;99.90;;;;;;4113422;28;20034;-67
2023/10/31 08:04:52;;;;;;;9.55;6.82;;;12.10;99.90;;;;;;4128692;28;20031;-67
2023/10/31 08:06:52;;;;;;;8.52;6.30;;;12.10;99.90;;;;;;4127874;28;20494;-66
2023/10/31 08:08:53;;;;;;;8.50;6.80;;;12.10;99.90;;;;;;4133489;28;20065;-66
2023/10/31 08:10:53;;;;;;;7.22;6.32;;;12.00;99.90;;;;;;4127343;28;20034;-67
2023/10/31 08:12:54;;;;;;;7.93;6.95;;;12.10;99.90;;;;;;4128761;28;20034;-67
2023/10/31 08:14:54;;;;;;;8.60;6.85;;;12.10;99.90;;;;;;4127953;28;20034;-72
2023/10/31 08:16:55;;;;;;;7.18;6.15;;;12.20;99.90;;;;;;4128601;28;20683;-73
2023/10/31 08:18:56;;;;;;;9.20;6.10;;;12.30;99.90;;;;;;4113098;28;20039;-73
2023/10/31 08:20:57;;;;;;;8.38;6.63;;;12.30;99.90;;;;;;4126833;28;20057;-72
2023/10/31 08:22:57;;;;;;;7.18;5.47;;;12.30;99.90;;;;;;4128975;28;20156;-73
2023/10/31 08:24:58;;;;;;;6.75;5.65;;;12.40;99.90;;;;;;4130812;28;20046;-72
2023/10/31 08:26:59;;;;;;;7.07;5.47;;;12.50;99.90;;;;;;4095207;28;20035;-73
2023/10/31 08:29:00;;;;;;;6.72;4.57;;;12.60;99.90;;;;;;4131274;28;20054;-72
2023/10/31 08:31:00;;;;;;;5.45;4.70;;;12.60;99.90;;;;;;4110286;28;20046;-73
2023/10/31 08:33:01;;;;;;;5.32;4.20;;;12.60;99.90;;;;;;4111142;28;20042;-73
2023/10/31 08:35:02;;;;;;;5.45;4.25;;;12.70;99.90;;;;;;4127700;28;20043;-73
2023/10/31 08:37:03;;;;;;;5.65;4.90;;;12.70;99.90;;;;;;4109948;28;20035;-74
2023/10/31 08:39:04;;;;;;;4.57;3.67;;;12.70;99.90;;;;;;4127368;28;20030;-73
2023/10/31 08:41:04;;;;;;;6.50;4.57;;;12.70;99.90;;;;;;4127030;28;20462;-73
2023/10/31 08:43:06;;;;;;;7.30;4.30;;;12.70;99.90;;;;;;4128102;28;20165;-73
2023/10/31 08:45:07;;;;;;;7.07;4.77;;;12.70;99.90;;;;;;4141555;28;20038;-74
2023/10/31 08:47:08;;;;;;;4.35;3.83;;;12.70;99.90;;;;;;4127516;28;20274;-73
2023/10/31 08:49:09;;;;;;;4.07;3.17;;;12.80;99.90;;;;;;4127255;28;20222;-73
2023/10/31 08:51:09;;;;;;;4.68;3.70;;;12.80;99.90;;;;;;4125212;28;20034;-73
2023/10/31 08:53:10;;;;;;;4.78;3.50;;;12.80;99.90;;;;;;4128948;28;20034;-73
2023/10/31 08:55:11;;;;;;;5.00;4.10;;;12.80;99.90;;;;;;4127301;28;20034;-75
2023/10/31 08:57:11;;;;;;;5.57;4.28;;;12.80;99.90;;;;;;4127270;28;20042;-73
2023/10/31 08:59:12;;;;;;;4.63;3.58;;;12.80;99.90;;;;;;4110341;28;20035;-74
2023/10/31 09:01:13;;;;;;;4.53;3.53;;;12.80;99.90;;;;;;4127083;28;20204;-73
2023/10/31 09:03:13;;;;;;;4.43;3.70;;;12.80;99.90;;;;;;4127928;28;20106;-73
2023/10/31 09:05:14;;;;;;;5.05;3.70;;;12.80;99.90;;;;;;4126679;28;20045;-75
2023/10/31 09:07:14;;;;;;;6.20;3.50;;;12.80;99.90;;;;;;4126647;28;20475;-75
2023/10/31 09:09:15;;;;;;;3.55;3.22;;;12.80;99.90;;;;;;4108779;28;20051;-75
2023/10/31 09:11:16;;;;;;;6.22;4.57;;;12.80;99.90;;;;;;4118177;28;20110;-75
2023/10/31 09:13:16;;;;;;;5.35;4.13;;;12.80;99.90;;;;;;4135980;28;20030;-75
2023/10/31 09:15:18;;;;;;;5.82;3.92;;;12.70;99.90;;;;;;4117307;28;20034;-74
2023/10/31 09:17:19;;;;;;;5.00;3.42;;;12.70;99.90;;;;;;4134450;28;20041;-75
2023/10/31 09:19:19;;;;;;;6.28;3.95;;;12.80;99.90;;;;;;4132930;28;20035;-75
2023/10/31 09:21:20;;;;;;;5.57;4.15;;;12.80;99.90;;;;;;4135368;28;20092;-74
2023/10/31 09:23:20;;;;;;;6.68;4.40;;;12.80;99.90;;;;;;4134853;28;20045;-75
2023/10/31 09:25:21;;;;;;;6.38;4.50;;;12.80;99.90;;;;;;4132002;28;20038;-71
2023/10/31 09:27:22;;;;;;;4.85;3.67;;;12.80;99.90;;;;;;4134236;28;20033;-71
2023/10/31 09:29:22;;;;;;;8.85;4.22;;;12.80;99.90;;;;;;4131097;28;20069;-71
2023/10/31 09:31:23;;;;;;;5.22;4.25;;;12.80;99.90;;;;;;4133082;28;20030;-72
2023/10/31 09:33:24;;;;;;;5.35;4.20;;;12.80;99.90;;;;;;4134626;28;20029;-72
2023/10/31 09:35:26;;;;;;;8.48;5.50;;;12.80;99.90;;;;;;4131777;28;20034;-71
2023/10/31 09:37:26;;;;;;;4.45;3.97;;;12.80;99.90;;;;;;4133152;28;20034;-71
2023/10/31 09:39:28;;;;;;;8.13;5.20;;;12.90;99.90;;;;;;4112621;28;20042;-71
2023/10/31 09:41:30;;;;;;;7.40;4.40;;;12.80;99.90;;;;;;4133454;28;20038;-71
2023/10/31 09:43:31;;;;;;;7.50;5.03;;;12.80;99.90;;;;;;4135440;28;20042;-72
2023/10/31 09:45:32;;;;;;;8.30;5.15;;;12.80;99.90;;;;;;4132152;28;20079;-71
2023/10/31 09:47:32;;;;;;;7.32;4.60;;;12.80;99.90;;;;;;4133316;28;20103;-71
2023/10/31 09:49:34;;;;;;;7.15;5.60;;;12.80;99.90;;;;;;4129290;28;20077;-72
2023/10/31 09:51:34;;;;;;;7.63;5.10;;;12.70;99.90;;;;;;4133324;28;20156;-71
2023/10/31 09:53:38;;;;;;;6.75;4.90;;;12.70;99.90;;;;;;4129913;28;20034;-72
2023/10/31 09:55:39;;;;;;;7.10;5.40;;;12.70;99.90;;;;;;4127285;28;20062;-71
2023/10/31 09:57:39;;;;;;;12.65;6.95;;;12.80;99.90;;;;;;4130925;28;20044;-71
2023/10/31 09:59:40;;;;;;;8.55;5.45;;;12.80;99.90;;;;;;4126312;28;20069;-71
2023/10/31 10:01:41;;;;;;;9.05;6.20;;;12.70;99.90;;;;;;4137074;28;20123;-71
2023/10/31 10:03:43;;;;;;;7.47;5.30;;;12.70;99.90;;;;;;4116169;28;20058;-71
2023/10/31 10:05:45;;;;;;;7.28;5.05;;;12.80;99.90;;;;;;4129444;28;20168;-71
2023/10/31 10:07:45;;;;;;;10.35;6.38;;;12.80;99.90;;;;;;4129499;28;20027;-71
2023/10/31 10:09:46;;;;;;;10.60;6.10;;;12.70;99.90;;;;;;4130841;28;20042;-71
2023/10/31 10:11:47;;;;;;;9.18;5.90;;;12.80;99.90;;;;;;4114931;28;20162;-71
2023/10/31 10:13:48;;;;;;;9.90;5.88;;;12.70;99.90;;;;;;4135027;28;20418;-71
2023/10/31 10:15:52;;;;;;;9.73;5.40;;;12.80;99.90;;;;;;4131547;28;20105;-71
2023/10/31 10:17:52;;;;;;;7.22;4.82;;;12.80;99.90;;;;;;4129074;28;20042;-71
2023/10/31 10:20:10;;;;;;;8.73;4.93;;;12.80;99.90;;;;;;4130048;28;20042;-71
2023/10/31 10:22:11;;;;;;;5.55;4.35;;;12.80;99.90;;;;;;4118276;28;20034;-71
2023/10/31 10:24:11;;;;;;;11.02;4.88;;;12.80;99.90;;;;;;4134781;28;20043;-71
2023/10/31 10:26:12;;;;;;;9.23;4.45;;;12.80;99.90;;;;;;4115564;28;20122;-71
2023/10/31 10:28:13;;;;;;;5.75;4.30;;;12.80;99.90;;;;;;4128796;28;20039;-71